Time;durP1;ratioP1;P1;durP2;ratioP2;P2;SDS_P1;SDS_P2;PMS_P1;PMS_P2;Temp;Humidity;BMP_temperature;BMP_pressure;BME280_temperature;BME280_humidity;BME280_pressure;Samples;Min_cycle;Max_cycle;Signal;HPM_P1;HPM_P2
2022/09/06 00:00:57;;;;;;;5.55;4.60;;;19.90;99.90;;;;;;4988806;28;20135;-84
2022/09/06 00:03:23;;;;;;;7.22;4.63;;;19.90;99.90;;;;;;4983466;28;20046;-84
2022/09/06 00:05:50;;;;;;;6.88;4.75;;;19.80;99.90;;;;;;4993779;28;20037;-85
2022/09/06 00:08:16;;;;;;;6.22;4.95;;;19.80;99.90;;;;;;5002458;28;20061;-85
2022/09/06 00:10:42;;;;;;;9.13;4.90;;;19.80;99.90;;;;;;5004756;28;20403;-85
2022/09/06 00:13:09;;;;;;;5.90;4.53;;;19.70;99.90;;;;;;4982181;28;20372;-85
2022/09/06 00:15:36;;;;;;;10.05;5.10;;;19.70;99.90;;;;;;4981036;28;20478;-85
2022/09/06 00:18:04;;;;;;;7.95;4.35;;;19.60;99.90;;;;;;4978916;28;20041;-85
2022/09/06 00:20:31;;;;;;;5.10;4.60;;;19.60;99.90;;;;;;4962824;28;20042;-85
2022/09/06 00:23:06;;;;;;;8.07;4.50;;;19.60;99.90;;;;;;4980867;28;20110;-84
2022/09/06 00:25:35;;;;;;;8.20;4.60;;;19.50;99.90;;;;;;4983157;28;20057;-85
2022/09/06 00:28:03;;;;;;;5.00;4.50;;;19.50;99.90;;;;;;4973227;28;20465;-85
2022/09/06 00:30:30;;;;;;;6.22;5.18;;;19.40;99.90;;;;;;5003673;28;20093;-85
2022/09/06 00:32:56;;;;;;;7.25;5.30;;;19.40;99.90;;;;;;5006929;28;20042;-85
2022/09/06 00:35:23;;;;;;;5.43;4.93;;;19.40;99.90;;;;;;5010795;28;20045;-85
2022/09/06 00:37:50;;;;;;;6.30;5.00;;;19.40;1.00;;;;;;4966125;28;20060;-85
2022/09/06 00:40:17;;;;;;;7.65;4.82;;;19.40;99.90;;;;;;4982155;28;20547;-85
2022/09/06 00:42:42;;;;;;;8.60;5.00;;;19.40;99.90;;;;;;4981853;28;20054;-85
2022/09/06 00:45:10;;;;;;;12.77;5.03;;;19.30;99.90;;;;;;4982161;28;20050;-85
2022/09/06 00:47:39;;;;;;;7.32;5.00;;;19.20;1.00;;;;;;4980164;28;20125;-85
2022/09/06 00:50:05;;;;;;;6.65;5.10;;;19.20;1.00;;;;;;4988257;28;20550;-85
2022/09/06 00:52:32;;;;;;;7.40;5.35;;;19.20;7.40;;;;;;4998425;28;20125;-85
2022/09/06 00:54:58;;;;;;;5.93;4.95;;;19.10;1.00;;;;;;4963396;28;20126;-84
2022/09/06 00:57:27;;;;;;;6.05;5.18;;;19.00;1.00;;;;;;4993449;28;20045;-85
2022/09/06 00:59:54;;;;;;;8.13;5.35;;;19.00;28.20;;;;;;4961257;28;20046;-85
2022/09/06 01:02:20;;;;;;;6.50;5.05;;;18.90;19.40;;;;;;4984499;28;20132;-85
2022/09/06 01:04:47;;;;;;;6.65;5.07;;;18.90;97.70;;;;;;5003407;28;20068;-85
2022/09/06 01:07:16;;;;;;;6.70;5.20;;;18.80;99.90;;;;;;4964544;28;20145;-84
2022/09/06 01:09:48;;;;;;;5.85;5.05;;;18.80;99.90;;;;;;5005608;28;20055;-85
2022/09/06 01:12:25;;;;;;;7.38;5.13;;;18.80;99.90;;;;;;4966881;28;20556;-85
2022/09/06 01:15:12;;;;;;;7.35;5.18;;;18.70;99.90;;;;;;4964038;28;20459;-85
2022/09/06 01:17:53;;;;;;;12.88;5.05;;;18.70;99.90;;;;;;5005002;28;20231;-85
2022/09/06 01:20:46;;;;;;;7.93;5.28;;;18.70;99.90;;;;;;4982112;28;20046;-84
2022/09/06 01:23:45;;;;;;;7.03;5.38;;;18.60;99.90;;;;;;5004919;28;20046;-85
2022/09/06 01:26:52;;;;;;;5.53;5.00;;;18.70;99.90;;;;;;4976870;28;20122;-85
2022/09/06 01:29:44;;;;;;;7.97;5.50;;;18.60;99.90;;;;;;4964341;28;20041;-84
2022/09/06 01:32:22;;;;;;;6.20;4.90;;;18.70;99.90;;;;;;5007093;28;20417;-85
2022/09/06 01:34:56;;;;;;;8.18;5.25;;;18.70;99.90;;;;;;4981217;28;20053;-85
2022/09/06 01:37:22;;;;;;;;;;;18.60;99.90;;;;;;5002170;28;20038;-85
2022/09/06 01:39:48;;;;;;;5.82;5.25;;;18.50;99.90;;;;;;4986739;28;19980;-85
2022/09/06 01:42:21;;;;;;;8.38;5.30;;;18.50;99.90;;;;;;4995802;28;20050;-85
2022/09/06 01:45:09;;;;;;;7.45;5.30;;;18.50;99.90;;;;;;5003395;28;20055;-85
2022/09/06 01:47:38;;;;;;;7.60;5.53;;;18.50;99.90;;;;;;4985838;28;20061;-85
2022/09/06 01:50:31;;;;;;;9.27;5.70;;;18.50;1.00;;;;;;4969740;28;20113;-84
2022/09/06 01:53:32;;;;;;;7.78;5.68;;;18.40;1.00;;;;;;4969013;28;20052;-85
2022/09/06 01:56:12;;;;;;;6.63;5.32;;;18.40;1.00;;;;;;4975835;28;20107;-84
2022/09/06 01:59:05;;;;;;;5.90;5.30;;;18.40;1.00;;;;;;5007076;28;20046;-85
2022/09/06 02:01:35;;;;;;;8.02;5.72;;;18.40;1.00;;;;;;4985958;28;20117;-85
2022/09/06 02:04:12;;;;;;;8.85;5.35;;;18.50;99.90;;;;;;4983175;28;20050;-85
2022/09/06 02:07:05;;;;;;;6.30;5.35;;;18.40;99.90;;;;;;4987869;28;20271;-85
2022/09/06 02:09:39;;;;;;;8.73;5.40;;;18.40;99.90;;;;;;4962306;28;20053;-85
2022/09/06 02:12:07;;;;;;;5.97;5.32;;;18.40;99.90;;;;;;4986350;28;20108;-85
2022/09/06 02:14:39;;;;;;;7.95;5.50;;;18.40;99.90;;;;;;4985064;28;20278;-85
2022/09/06 02:17:10;;;;;;;7.90;5.80;;;18.50;99.90;;;;;;4984150;28;20060;-85
2022/09/06 02:19:48;;;;;;;13.48;5.72;;;18.50;99.90;;;;;;5007826;28;20066;-85
2022/09/06 02:22:17;;;;;;;7.88;5.13;;;18.40;99.90;;;;;;4995929;28;20505;-85
2022/09/06 02:24:46;;;;;;;5.55;4.95;;;18.40;99.90;;;;;;4986998;28;20464;-85
2022/09/06 02:27:13;;;;;;;8.23;5.63;;;18.40;99.90;;;;;;4979472;28;20049;-85
2022/09/06 02:29:39;;;;;;;6.60;5.45;;;18.40;99.90;;;;;;4980139;28;20042;-85
2022/09/06 02:32:22;;;;;;;6.22;5.20;;;18.40;99.90;;;;;;4996295;28;20043;-85
2022/09/06 02:34:51;;;;;;;7.97;5.68;;;18.30;99.90;;;;;;4961514;28;20038;-85
2022/09/06 02:37:17;;;;;;;5.43;4.93;;;18.30;99.90;;;;;;4969032;28;20045;-84
2022/09/06 02:39:43;;;;;;;7.43;5.53;;;18.30;99.90;;;;;;4983268;28;20514;-84
2022/09/06 02:42:10;;;;;;;7.55;5.47;;;18.30;99.90;;;;;;4986932;28;20056;-85
2022/09/06 02:44:36;;;;;;;8.15;5.68;;;18.30;99.90;;;;;;4985854;28;20477;-85
2022/09/06 02:47:02;;;;;;;9.95;5.70;;;18.30;99.90;;;;;;4974107;28;20042;-85
2022/09/06 02:49:28;;;;;;;6.32;5.65;;;18.30;99.90;;;;;;4981750;28;20117;-85
2022/09/06 02:51:54;;;;;;;8.02;5.32;;;18.30;99.90;;;;;;4982086;28;20088;-84
2022/09/06 02:54:20;;;;;;;6.22;5.45;;;18.20;99.90;;;;;;4997898;28;20072;-85
2022/09/06 02:56:46;;;;;;;8.15;5.93;;;18.20;99.90;;;;;;4980713;28;20177;-85
2022/09/06 02:59:11;;;;;;;6.68;5.60;;;18.20;1.00;;;;;;4985195;28;20065;-85
2022/09/06 03:01:37;;;;;;;8.55;6.20;;;18.20;99.90;;;;;;4980141;28;20093;-85
2022/09/06 03:04:03;;;;;;;7.47;5.97;;;18.20;99.90;;;;;;4984426;28;20161;-84
2022/09/06 03:06:29;;;;;;;6.57;5.80;;;18.20;99.90;;;;;;4967036;28;20487;-85
2022/09/06 03:08:55;;;;;;;7.32;6.00;;;18.20;99.90;;;;;;4991701;28;20041;-84
2022/09/06 03:11:20;;;;;;;7.25;5.80;;;18.20;99.90;;;;;;4986145;28;20053;-85
2022/09/06 03:13:46;;;;;;;7.05;5.90;;;18.20;99.90;;;;;;4982623;28;20409;-85
2022/09/06 03:16:15;;;;;;;8.60;5.97;;;18.20;1.00;;;;;;4980921;28;20117;-86
2022/09/06 03:18:40;;;;;;;7.13;5.80;;;18.20;99.90;;;;;;5009606;28;20107;-84
2022/09/06 03:21:06;;;;;;;6.68;5.72;;;18.20;99.90;;;;;;4985367;28;20047;-85
2022/09/06 03:23:37;;;;;;;8.00;6.40;;;18.20;99.90;;;;;;4967261;28;20061;-85
2022/09/06 03:26:03;;;;;;;6.97;5.95;;;18.20;99.90;;;;;;4998360;28;20053;-85
2022/09/06 03:28:32;;;;;;;6.60;5.90;;;18.20;99.90;;;;;;4968921;28;20069;-85
2022/09/06 03:30:58;;;;;;;8.50;6.28;;;18.20;99.90;;;;;;4986483;28;20122;-85
2022/09/06 03:33:24;;;;;;;7.50;6.07;;;18.20;1.00;;;;;;4986062;28;20050;-85
2022/09/06 03:35:59;;;;;;;6.22;5.53;;;18.10;99.90;;;;;;4999591;28;20140;-84
2022/09/06 03:38:26;;;;;;;6.43;5.80;;;18.20;1.00;;;;;;4972892;28;20357;-85
2022/09/06 03:40:52;;;;;;;9.80;6.35;;;18.00;1.00;;;;;;4966809;28;20129;-84
2022/09/06 03:43:18;;;;;;;7.93;6.28;;;18.10;1.00;;;;;;5009481;28;20355;-85
2022/09/06 03:45:46;;;;;;;7.60;5.90;;;18.10;1.00;;;;;;4981304;28;20050;-85
2022/09/06 03:48:16;;;;;;;7.80;6.13;;;18.10;1.00;;;;;;4979671;28;20069;-86
2022/09/06 03:50:47;;;;;;;7.15;6.00;;;18.10;1.00;;;;;;4986728;28;20640;-85
2022/09/06 03:53:13;;;;;;;6.18;5.68;;;18.10;1.00;;;;;;4983067;28;20038;-85
2022/09/06 03:55:39;;;;;;;7.40;6.03;;;18.10;1.00;;;;;;4979402;28;20050;-84
2022/09/06 03:58:05;;;;;;;7.15;6.45;;;18.10;1.00;;;;;;4967232;28;20038;-85
2022/09/06 04:00:32;;;;;;;7.18;6.20;;;18.10;1.00;;;;;;4966276;28;20095;-85
2022/09/06 04:02:58;;;;;;;7.18;6.47;;;18.10;1.00;;;;;;4967594;28;20281;-85
2022/09/06 04:05:24;;;;;;;6.88;5.70;;;18.10;1.00;;;;;;5007821;28;20048;-85
2022/09/06 04:07:49;;;;;;;8.65;6.43;;;18.10;1.00;;;;;;5007176;28;20057;-85
2022/09/06 04:10:15;;;;;;;7.75;6.63;;;18.10;1.00;;;;;;4980881;28;20500;-85
2022/09/06 04:12:41;;;;;;;11.45;6.65;;;18.20;1.00;;;;;;4977854;28;20042;-85
2022/09/06 04:15:07;;;;;;;9.15;6.70;;;18.20;1.00;;;;;;4985875;28;20047;-85
2022/09/06 04:17:33;;;;;;;7.95;6.13;;;18.10;94.70;;;;;;4980640;28;20069;-85
2022/09/06 04:19:59;;;;;;;9.57;7.03;;;18.20;1.00;;;;;;4984698;28;20461;-85
2022/09/06 04:22:24;;;;;;;7.32;6.65;;;18.20;90.50;;;;;;4988586;28;20037;-85
2022/09/06 04:24:50;;;;;;;10.43;6.80;;;18.20;1.00;;;;;;4979872;28;20658;-85
2022/09/06 04:27:15;;;;;;;8.60;7.20;;;18.20;1.00;;;;;;4986836;28;20057;-85
2022/09/06 04:29:41;;;;;;;9.05;7.30;;;18.20;20.10;;;;;;4971460;28;20042;-85
2022/09/06 04:32:07;;;;;;;8.57;6.47;;;18.20;2.30;;;;;;4982005;28;20045;-85
2022/09/06 04:34:33;;;;;;;8.77;6.70;;;18.20;8.50;;;;;;4973732;28;20034;-85
2022/09/06 04:36:58;;;;;;;8.98;7.20;;;18.20;1.00;;;;;;4975352;28;20046;-85
2022/09/06 04:39:24;;;;;;;7.82;7.03;;;18.20;1.00;;;;;;4967909;28;20047;-85
2022/09/06 04:41:49;;;;;;;8.50;6.97;;;18.10;35.40;;;;;;4966346;28;20390;-85
2022/09/06 04:44:15;;;;;;;7.53;6.68;;;18.10;19.00;;;;;;4978770;28;20172;-85
2022/09/06 04:46:41;;;;;;;8.05;7.35;;;18.10;99.90;;;;;;4968993;28;20038;-85
2022/09/06 04:49:07;;;;;;;13.30;6.95;;;18.20;99.90;;;;;;4976872;28;20144;-85
2022/09/06 04:51:32;;;;;;;8.20;7.40;;;18.10;79.70;;;;;;5008073;28;20054;-84
2022/09/06 04:53:58;;;;;;;9.40;7.40;;;18.10;99.90;;;;;;4991490;28;20061;-84
2022/09/06 04:56:25;;;;;;;7.95;7.20;;;18.10;99.90;;;;;;4990296;28;20228;-84
2022/09/06 04:58:53;;;;;;;9.43;7.50;;;18.10;99.90;;;;;;4980471;28;20175;-84
2022/09/06 05:01:19;;;;;;;9.18;7.93;;;18.10;99.90;;;;;;5007397;28;20365;-83
2022/09/06 05:03:45;;;;;;;9.70;7.20;;;18.10;99.90;;;;;;4970300;28;20061;-83
2022/09/06 05:06:17;;;;;;;9.30;7.63;;;18.00;99.90;;;;;;4974726;28;20335;-83
2022/09/06 05:08:45;;;;;;;8.27;7.47;;;18.10;1.00;;;;;;4979311;28;20054;-83
2022/09/06 05:11:11;;;;;;;10.50;7.95;;;18.00;1.00;;;;;;4995389;28;20043;-83
2022/09/06 05:13:37;;;;;;;8.40;7.60;;;18.00;11.60;;;;;;4965149;28;20039;-82
2022/09/06 05:16:06;;;;;;;9.10;8.02;;;18.00;82.90;;;;;;4981005;28;20452;-83
2022/09/06 05:18:32;;;;;;;8.73;7.93;;;18.00;98.50;;;;;;4994369;28;20057;-84
2022/09/06 05:20:58;;;;;;;9.15;8.18;;;17.90;99.90;;;;;;5006375;28;20454;-84
2022/09/06 05:23:27;;;;;;;10.45;8.18;;;18.00;99.90;;;;;;4983721;28;20103;-84
2022/09/06 05:25:53;;;;;;;9.60;8.57;;;17.90;99.90;;;;;;4997151;28;20060;-84
2022/09/06 05:28:22;;;;;;;10.20;8.15;;;17.90;99.90;;;;;;4985588;28;20052;-83
2022/09/06 05:30:47;;;;;;;9.43;8.52;;;18.00;99.90;;;;;;4987854;28;20050;-83
2022/09/06 05:33:19;;;;;;;9.90;8.48;;;18.00;99.90;;;;;;4975217;28;20394;-84
2022/09/06 05:35:45;;;;;;;9.82;8.82;;;18.00;99.90;;;;;;4985355;28;20046;-84
2022/09/06 05:38:10;;;;;;;10.18;8.00;;;18.00;99.90;;;;;;5010629;28;20045;-84
2022/09/06 05:40:36;;;;;;;9.15;8.35;;;18.00;99.90;;;;;;4981048;28;20092;-83
2022/09/06 05:43:02;;;;;;;10.50;9.00;;;18.00;1.00;;;;;;4978777;28;20206;-83
2022/09/06 05:45:27;;;;;;;9.68;8.77;;;18.10;1.00;;;;;;4981826;28;20042;-84
2022/09/06 05:47:53;;;;;;;9.40;8.55;;;18.10;91.00;;;;;;4993279;28;20509;-84
2022/09/06 05:50:19;;;;;;;11.18;9.13;;;18.10;44.00;;;;;;4987487;28;20159;-83
2022/09/06 05:52:44;;;;;;;11.30;9.23;;;18.10;99.90;;;;;;4986748;28;20049;-83
2022/09/06 05:55:10;;;;;;;11.55;8.70;;;18.00;99.90;;;;;;4982777;28;20053;-83
2022/09/06 05:57:36;;;;;;;11.40;9.57;;;18.00;99.90;;;;;;4968667;28;20047;-83
2022/09/06 06:00:03;;;;;;;10.10;9.13;;;18.10;99.90;;;;;;4993145;28;20085;-83
2022/09/06 06:02:29;;;;;;;10.88;9.10;;;18.10;99.90;;;;;;4975106;28;20057;-83
2022/09/06 06:04:54;;;;;;;9.80;8.75;;;18.10;14.20;;;;;;4983093;28;20049;-83
2022/09/06 06:07:20;;;;;;;12.40;9.40;;;18.20;98.10;;;;;;4978512;28;20557;-83
2022/09/06 06:09:46;;;;;;;10.63;8.88;;;18.10;99.90;;;;;;4973242;28;20472;-83
2022/09/06 06:12:15;;;;;;;12.23;9.70;;;18.10;99.90;;;;;;4985909;28;20034;-83
2022/09/06 06:14:40;;;;;;;10.35;9.30;;;18.20;26.10;;;;;;4982417;28;20049;-83
2022/09/06 06:17:06;;;;;;;12.07;9.63;;;18.20;61.60;;;;;;4980018;28;20047;-83
2022/09/06 06:19:32;;;;;;;11.75;10.07;;;18.20;11.50;;;;;;4992602;28;20584;-83
2022/09/06 06:21:57;;;;;;;10.52;9.32;;;18.20;99.90;;;;;;4970315;28;20105;-83
2022/09/06 06:24:23;;;;;;;10.23;9.05;;;18.20;61.30;;;;;;4985684;28;20121;-83
2022/09/06 06:26:52;;;;;;;11.00;9.57;;;18.30;99.90;;;;;;4986619;28;20109;-83
2022/09/06 06:29:18;;;;;;;12.02;9.77;;;18.30;27.40;;;;;;4980664;28;20121;-83
2022/09/06 06:31:46;;;;;;;11.38;9.38;;;18.30;49.10;;;;;;4975253;28;20450;-83
2022/09/06 06:34:12;;;;;;;10.75;9.75;;;18.40;1.00;;;;;;4987705;28;20035;-83
2022/09/06 06:36:38;;;;;;;11.15;10.05;;;18.40;1.00;;;;;;4977461;28;20038;-83
2022/09/06 06:39:07;;;;;;;10.75;9.75;;;18.50;1.00;;;;;;4975146;28;20498;-83
2022/09/06 06:41:33;;;;;;;10.85;9.55;;;18.60;99.90;;;;;;4983137;28;20081;-83
2022/09/06 06:44:00;;;;;;;11.45;9.82;;;18.60;99.90;;;;;;4989908;28;20284;-83
2022/09/06 06:46:30;;;;;;;12.30;9.80;;;18.60;99.90;;;;;;5010682;28;20042;-83
2022/09/06 06:48:56;;;;;;;10.98;9.70;;;18.70;99.90;;;;;;4984733;28;20084;-83
2022/09/06 06:51:24;;;;;;;10.95;9.52;;;18.70;99.90;;;;;;4976137;28;20048;-83
2022/09/06 06:53:50;;;;;;;10.70;9.60;;;18.70;1.00;;;;;;4986677;28;20030;-83
2022/09/06 06:56:20;;;;;;;12.00;10.77;;;18.70;1.00;;;;;;4992283;28;20502;-83
2022/09/06 06:58:48;;;;;;;10.98;9.82;;;18.70;1.00;;;;;;4986342;28;20041;-83
2022/09/06 07:01:21;;;;;;;13.15;10.40;;;18.70;48.20;;;;;;4973266;28;20051;-83
2022/09/06 07:03:48;;;;;;;11.98;10.63;;;18.70;56.60;;;;;;4980551;28;20106;-84
2022/09/06 07:06:14;;;;;;;11.98;10.27;;;18.80;1.00;;;;;;4983353;28;20117;-83
2022/09/06 07:08:41;;;;;;;11.00;9.90;;;18.90;1.00;;;;;;4968794;28;20042;-83
2022/09/06 07:11:08;;;;;;;11.60;10.40;;;19.00;1.00;;;;;;4977808;28;20531;-83
2022/09/06 07:13:34;;;;;;;13.68;10.73;;;19.20;99.90;;;;;;4988007;28;20243;-83
2022/09/06 07:16:19;;;;;;;11.85;10.65;;;19.20;99.90;;;;;;4979491;28;20512;-83
2022/09/06 07:18:46;;;;;;;12.05;10.95;;;19.50;99.90;;;;;;4990714;28;20610;-83
2022/09/06 07:21:24;;;;;;;11.65;10.55;;;19.70;99.90;;;;;;4979917;28;20457;-83
2022/09/06 07:23:50;;;;;;;12.85;11.13;;;19.90;99.90;;;;;;5010804;28;20089;-84
2022/09/06 07:26:18;;;;;;;11.35;10.25;;;20.10;1.00;;;;;;4988608;28;20074;-83
2022/09/06 07:28:45;;;;;;;12.18;10.70;;;20.40;99.90;;;;;;4972791;28;20046;-83
2022/09/06 07:31:11;;;;;;;14.45;11.23;;;20.20;1.00;;;;;;4979192;28;20065;-83
2022/09/06 07:33:37;;;;;;;11.63;10.63;;;20.20;99.90;;;;;;4965929;28;20482;-83
2022/09/06 07:36:05;;;;;;;11.90;10.90;;;20.20;99.90;;;;;;4972136;28;20046;-83
2022/09/06 07:38:31;;;;;;;13.07;11.40;;;20.20;99.90;;;;;;4989047;28;20505;-83
2022/09/06 07:41:02;;;;;;;12.43;11.13;;;20.20;99.90;;;;;;4994258;28;20252;-83
2022/09/06 07:43:29;;;;;;;14.35;10.80;;;20.20;99.90;;;;;;4971971;28;20580;-83
2022/09/06 07:46:08;;;;;;;12.27;11.18;;;20.30;99.90;;;;;;4982160;28;20058;-83
2022/09/06 07:48:36;;;;;;;13.82;11.27;;;20.40;99.90;;;;;;4989853;28;20055;-83
2022/09/06 07:51:11;;;;;;;14.43;11.15;;;20.60;99.90;;;;;;4978479;28;20404;-83
2022/09/06 07:53:38;;;;;;;13.57;11.40;;;20.80;99.90;;;;;;4992582;28;20041;-84
2022/09/06 07:56:06;;;;;;;12.23;11.13;;;20.80;99.90;;;;;;4971308;28;20127;-83
2022/09/06 07:58:33;;;;;;;15.98;12.07;;;20.80;99.90;;;;;;4974727;28;20216;-84
2022/09/06 08:01:17;;;;;;;12.63;11.40;;;20.80;99.90;;;;;;4978535;28;20042;-83
2022/09/06 08:03:43;;;;;;;13.35;12.05;;;21.00;99.90;;;;;;4985243;28;20133;-83
2022/09/06 08:06:09;;;;;;;14.95;12.05;;;21.20;36.20;;;;;;5004228;28;20065;-83
2022/09/06 08:08:35;;;;;;;13.18;11.82;;;21.30;1.00;;;;;;4983465;28;20410;-83
2022/09/06 08:11:00;;;;;;;13.18;11.73;;;21.30;1.00;;;;;;4994448;28;20053;-83
2022/09/06 08:13:26;;;;;;;13.02;11.73;;;21.10;1.00;;;;;;4984178;28;20429;-83
2022/09/06 08:15:59;;;;;;;12.98;11.88;;;21.00;1.00;;;;;;4984132;28;20089;-84
2022/09/06 08:18:25;;;;;;;12.85;11.00;;;20.90;1.00;;;;;;4980775;28;20038;-84
2022/09/06 08:20:50;;;;;;;14.73;11.90;;;20.90;41.60;;;;;;4984949;28;20439;-84
2022/09/06 08:23:16;;;;;;;15.93;12.32;;;20.70;28.70;;;;;;4986607;28;20119;-83
2022/09/06 08:25:42;;;;;;;14.77;12.20;;;20.80;1.00;;;;;;4962770;28;20072;-83
2022/09/06 08:28:07;;;;;;;13.68;12.13;;;21.00;1.00;;;;;;4972296;28;20056;-83
2022/09/06 08:30:34;;;;;;;13.20;11.90;;;21.10;1.00;;;;;;4976206;28;20100;-83
2022/09/06 08:33:03;;;;;;;14.48;13.07;;;21.30;99.90;;;;;;5009874;28;20122;-84
2022/09/06 08:35:28;;;;;;;13.85;12.55;;;21.50;99.90;;;;;;4988016;28;20045;-83
2022/09/06 08:37:57;;;;;;;14.10;12.77;;;21.70;99.90;;;;;;4983643;28;20018;-83
2022/09/06 08:40:24;;;;;;;13.55;12.20;;;21.90;99.90;;;;;;4984728;28;20097;-83
2022/09/06 08:42:50;;;;;;;13.98;12.02;;;22.10;99.90;;;;;;4990083;28;20150;-83
2022/09/06 08:45:18;;;;;;;15.20;12.80;;;22.10;99.90;;;;;;4985950;28;20129;-83
2022/09/06 08:47:44;;;;;;;16.40;12.68;;;22.40;99.90;;;;;;5005624;28;20046;-83
2022/09/06 08:50:10;;;;;;;14.40;12.88;;;22.30;92.20;;;;;;4968162;28;20042;-83
2022/09/06 08:52:42;;;;;;;15.20;12.25;;;22.60;74.50;;;;;;4984842;28;20760;-84
2022/09/06 08:55:22;;;;;;;12.93;11.55;;;22.60;81.70;;;;;;4968682;28;20038;-83
2022/09/06 08:58:09;;;;;;;12.82;11.60;;;22.80;30.20;;;;;;5011960;28;20046;-83
2022/09/06 09:00:37;;;;;;;12.15;11.05;;;23.10;1.00;;;;;;4979903;28;20081;-84
2022/09/06 09:03:15;;;;;;;12.80;11.25;;;23.30;1.00;;;;;;4986746;28;20042;-83
2022/09/06 09:05:42;;;;;;;13.98;11.63;;;23.50;1.00;;;;;;4990373;28;20045;-83
2022/09/06 09:08:28;;;;;;;12.82;10.60;;;23.40;99.90;;;;;;5011370;28;20089;-83
2022/09/06 09:10:59;;;;;;;11.65;10.38;;;23.80;99.90;;;;;;4984073;28;20352;-83
2022/09/06 09:13:28;;;;;;;11.60;10.48;;;24.00;99.90;;;;;;4985413;28;20078;-84
2022/09/06 09:15:53;;;;;;;11.50;10.25;;;24.20;99.90;;;;;;4976040;28;20041;-83
2022/09/06 09:18:25;;;;;;;11.10;10.07;;;24.30;99.90;;;;;;4988781;28;20048;-84
2022/09/06 09:20:51;;;;;;;10.50;9.50;;;24.10;99.90;;;;;;5014185;28;20226;-83
2022/09/06 09:23:17;;;;;;;11.02;9.93;;;24.20;99.90;;;;;;4985929;28;20051;-83
2022/09/06 09:25:45;;;;;;;11.02;9.00;;;24.00;99.90;;;;;;4994101;28;20057;-84
2022/09/06 09:28:21;;;;;;;11.00;9.02;;;24.20;99.90;;;;;;4989126;28;20144;-83
2022/09/06 09:30:55;;;;;;;10.40;9.40;;;24.20;99.90;;;;;;4986527;28;20556;-83
2022/09/06 09:33:26;;;;;;;10.15;9.15;;;24.00;99.90;;;;;;4994370;28;20038;-83
2022/09/06 09:35:52;;;;;;;9.52;8.65;;;24.00;99.90;;;;;;4986574;28;20038;-84
2022/09/06 09:38:21;;;;;;;9.00;8.00;;;24.30;99.90;;;;;;4989805;28;20472;-84
2022/09/06 09:41:04;;;;;;;15.95;8.77;;;24.80;99.90;;;;;;4989164;28;20042;-84
2022/09/06 09:43:41;;;;;;;10.55;7.60;;;25.10;99.90;;;;;;4991215;28;20423;-84
2022/09/06 09:46:09;;;;;;;8.32;6.90;;;25.30;99.90;;;;;;5011428;28;20121;-84
2022/09/06 09:48:35;;;;;;;10.50;7.15;;;25.50;99.90;;;;;;4976904;28;20097;-83
2022/09/06 09:51:20;;;;;;;7.93;7.13;;;25.50;99.90;;;;;;4997673;28;20078;-84
2022/09/06 09:53:59;;;;;;;8.35;6.72;;;25.90;99.90;;;;;;5014132;28;20552;-84
2022/09/06 09:56:40;;;;;;;8.25;7.10;;;25.90;99.90;;;;;;4981901;28;20044;-84
2022/09/06 09:59:20;;;;;;;10.80;8.00;;;25.80;99.90;;;;;;5014801;28;20043;-84
2022/09/06 10:01:46;;;;;;;10.10;8.30;;;25.90;99.90;;;;;;4969853;28;20486;-84
2022/09/06 10:04:21;;;;;;;9.43;8.38;;;25.70;99.90;;;;;;5001020;28;20495;-84
2022/09/06 10:06:46;;;;;;;9.60;7.57;;;25.70;99.90;;;;;;4974771;28;20125;-83
2022/09/06 10:09:28;;;;;;;9.93;7.85;;;26.00;99.90;;;;;;4974045;28;20141;-83
2022/09/06 10:11:57;;;;;;;12.50;9.88;;;26.00;99.90;;;;;;4975724;28;20050;-84
2022/09/06 10:14:32;;;;;;;10.32;8.55;;;25.70;99.90;;;;;;5011782;28;20046;-84
2022/09/06 10:16:59;;;;;;;9.52;8.45;;;26.10;99.90;;;;;;4970858;28;20376;-84
2022/09/06 10:19:42;;;;;;;12.60;9.48;;;26.20;99.90;;;;;;4982563;28;20438;-84
2022/09/06 10:22:18;;;;;;;13.90;11.27;;;26.20;99.90;;;;;;4983226;28;20046;-84
2022/09/06 10:25:13;;;;;;;20.63;12.88;;;26.20;99.90;;;;;;4992368;28;20051;-84
2022/09/06 10:28:03;;;;;;;13.30;11.90;;;26.10;99.90;;;;;;5014216;28;20052;-84
2022/09/06 10:30:31;;;;;;;12.30;11.00;;;26.20;99.90;;;;;;4984871;28;20624;-84
2022/09/06 10:33:08;;;;;;;11.75;10.57;;;26.50;99.90;;;;;;4988875;28;20041;-84
2022/09/06 10:35:36;;;;;;;14.13;11.25;;;26.60;99.90;;;;;;4989970;28;20379;-84
2022/09/06 10:38:17;;;;;;;13.90;10.20;;;26.60;99.90;;;;;;4986555;28;20057;-84
2022/09/06 10:41:08;;;;;;;11.85;8.73;;;26.90;99.90;;;;;;5004939;28;20043;-84
2022/09/06 10:44:07;;;;;;;9.52;8.50;;;27.00;99.90;;;;;;4983069;28;20510;-84
2022/09/06 10:46:34;;;;;;;11.45;8.70;;;27.10;99.90;;;;;;4973083;28;20058;-84
2022/09/06 10:48:59;;;;;;;11.25;8.55;;;26.70;99.90;;;;;;4996858;28;20050;-84
2022/09/06 10:51:33;;;;;;;9.98;8.00;;;26.90;99.90;;;;;;4972866;28;20473;-84
2022/09/06 10:53:59;;;;;;;12.63;8.32;;;27.00;99.90;;;;;;4985524;28;20138;-84
2022/09/06 10:56:48;;;;;;;11.30;8.73;;;27.20;99.90;;;;;;4985799;28;20165;-84
2022/09/06 10:59:31;;;;;;;10.10;9.07;;;27.10;99.90;;;;;;4970155;28;20303;-84
2022/09/06 11:02:15;;;;;;;9.88;8.90;;;27.20;99.90;;;;;;4992759;28;20056;-84
2022/09/06 11:04:43;;;;;;;9.70;8.60;;;27.40;99.90;;;;;;4964870;28;20050;-84
2022/09/06 11:07:39;;;;;;;10.27;9.23;;;27.20;99.90;;;;;;4991018;28;20449;-84
2022/09/06 11:10:22;;;;;;;13.68;9.18;;;27.60;99.90;;;;;;4987193;28;20073;-84
2022/09/06 11:13:14;;;;;;;11.90;9.77;;;27.60;99.90;;;;;;4968192;28;20042;-85
2022/09/06 11:16:02;;;;;;;11.32;9.15;;;27.70;99.90;;;;;;4983235;28;20050;-83
2022/09/06 11:18:31;;;;;;;10.50;8.45;;;27.70;99.90;;;;;;4979190;28;20184;-84
2022/09/06 11:21:05;;;;;;;8.38;7.57;;;27.60;99.90;;;;;;4986801;28;20128;-84
2022/09/06 11:23:50;;;;;;;10.85;8.27;;;28.00;99.90;;;;;;4990159;28;20034;-84
2022/09/06 11:26:31;;;;;;;12.27;8.43;;;27.90;99.90;;;;;;4980586;28;20608;-84
2022/09/06 11:29:27;;;;;;;9.63;7.45;;;28.00;99.90;;;;;;5003442;28;20054;-84
2022/09/06 11:31:56;;;;;;;8.93;6.50;;;28.10;99.90;;;;;;5008665;28;20441;-83
2022/09/06 11:34:31;;;;;;;6.72;6.13;;;28.10;99.90;;;;;;4991795;28;20422;-84
2022/09/06 11:37:02;;;;;;;8.77;6.00;;;28.10;99.90;;;;;;5012130;28;20128;-84
2022/09/06 11:39:37;;;;;;;7.75;5.60;;;28.40;99.90;;;;;;4970432;28;20041;-84
2022/09/06 11:42:27;;;;;;;6.97;5.63;;;28.50;99.90;;;;;;4996811;28;20628;-84
2022/09/06 11:45:20;;;;;;;10.27;5.35;;;28.80;99.90;;;;;;4980254;28;20058;-84
2022/09/06 11:47:52;;;;;;;8.73;5.25;;;28.90;99.90;;;;;;5006804;28;20055;-84
2022/09/06 11:50:21;;;;;;;7.20;6.15;;;29.10;99.90;;;;;;5000447;28;20057;-84
2022/09/06 11:53:07;;;;;;;6.20;5.60;;;29.20;99.90;;;;;;5004970;28;20037;-84
2022/09/06 11:55:40;;;;;;;6.28;4.80;;;29.40;99.90;;;;;;4997114;28;20515;-84
2022/09/06 11:58:25;;;;;;;5.88;5.28;;;29.10;99.90;;;;;;4996083;28;20043;-84
2022/09/06 12:01:23;;;;;;;6.80;5.22;;;29.40;99.90;;;;;;5009620;28;20061;-84
2022/09/06 12:03:51;;;;;;;8.20;5.57;;;29.40;99.90;;;;;;4983926;28;20455;-84
2022/09/06 12:06:39;;;;;;;6.30;5.70;;;29.50;99.90;;;;;;5007678;28;20084;-84
2022/09/06 12:09:41;;;;;;;8.80;5.30;;;29.00;99.90;;;;;;4980107;28;20132;-84
2022/09/06 12:12:07;;;;;;;6.32;4.88;;;29.50;99.90;;;;;;4972912;28;20082;-84
2022/09/06 12:14:45;;;;;;;5.03;4.40;;;29.40;99.90;;;;;;4993602;28;20042;-84
2022/09/06 12:17:11;;;;;;;6.55;4.65;;;29.40;99.90;;;;;;4989660;28;20049;-84
2022/09/06 12:19:56;;;;;;;5.70;4.60;;;29.60;99.90;;;;;;4984165;28;20412;-84
2022/09/06 12:22:28;;;;;;;11.55;4.75;;;29.50;99.90;;;;;;5011477;28;20521;-84
2022/09/06 12:24:59;;;;;;;6.50;4.78;;;29.50;99.90;;;;;;4988019;28;20049;-84
2022/09/06 12:27:38;;;;;;;6.50;4.35;;;29.70;99.90;;;;;;4989719;28;20165;-84
2022/09/06 12:30:13;;;;;;;5.65;5.03;;;29.70;99.90;;;;;;4982629;28;20046;-84
2022/09/06 12:32:45;;;;;;;5.18;4.18;;;29.70;99.90;;;;;;4992913;28;20038;-82
2022/09/06 12:35:20;;;;;;;6.45;4.88;;;29.70;99.90;;;;;;4995755;28;20052;-84
2022/09/06 12:37:57;;;;;;;6.20;4.82;;;30.00;99.90;;;;;;4975938;28;20046;-83
2022/09/06 12:40:36;;;;;;;7.78;4.80;;;30.40;99.90;;;;;;4979095;28;20096;-83
2022/09/06 12:43:04;;;;;;;5.95;4.97;;;30.40;99.90;;;;;;4976164;28;20096;-83
2022/09/06 12:45:30;;;;;;;6.00;4.85;;;29.70;99.90;;;;;;4993906;28;20097;-84
2022/09/06 12:48:08;;;;;;;5.43;3.92;;;30.00;99.90;;;;;;4991537;28;20046;-83
2022/09/06 12:50:35;;;;;;;4.65;4.05;;;30.50;99.90;;;;;;4994208;28;20080;-83
2022/09/06 12:53:21;;;;;;;5.78;4.50;;;30.60;99.90;;;;;;4984214;28;20636;-84
2022/09/06 12:55:47;;;;;;;6.57;3.80;;;29.90;99.90;;;;;;4978214;28;20126;-84
2022/09/06 12:58:13;;;;;;;5.88;3.97;;;29.90;99.90;;;;;;4974070;28;20130;-84
2022/09/06 13:00:43;;;;;;;3.78;3.38;;;30.10;99.90;;;;;;4980301;28;20102;-84
2022/09/06 13:03:09;;;;;;;5.57;3.80;;;29.70;93.20;;;;;;4965599;28;20177;-83